createdAt,value
2022-10-18T00:02:26.193Z,12.80
2022-10-18T00:04:57.237Z,13.00
2022-10-18T00:07:27.492Z,13.00
2022-10-18T00:09:58.530Z,13.00
2022-10-18T00:12:27.090Z,12.90
2022-10-18T00:14:54.669Z,12.90
2022-10-18T00:17:31.070Z,12.90
2022-10-18T00:19:58.766Z,12.80
2022-10-18T00:22:31.116Z,12.60
2022-10-18T00:25:06.107Z,12.70
2022-10-18T00:27:36.969Z,12.70
2022-10-18T00:30:07.559Z,12.70
2022-10-18T00:32:39.198Z,12.70
2022-10-18T00:35:15.556Z,12.70
2022-10-18T00:37:43.380Z,12.50
2022-10-18T00:40:17.222Z,12.60
2022-10-18T00:42:45.995Z,12.60
2022-10-18T00:45:23.631Z,12.60
2022-10-18T00:47:57.245Z,12.60
2022-10-18T00:50:29.889Z,12.60
2022-10-18T00:53:09.445Z,12.60
2022-10-18T00:55:39.748Z,12.50
2022-10-18T00:58:11.474Z,12.50
2022-10-18T01:00:47.330Z,12.50
2022-10-18T01:03:14.821Z,12.50
2022-10-18T01:05:47.878Z,12.50
2022-10-18T01:08:48.172Z,12.50
2022-10-18T01:11:31.336Z,12.40
2022-10-18T01:14:17.662Z,12.40
2022-10-18T01:17:19.904Z,12.40
2022-10-18T01:20:17.801Z,12.40
2022-10-18T01:23:24.576Z,12.40
2022-10-18T01:25:56.203Z,12.40
2022-10-18T01:28:48.662Z,12.30
2022-10-18T01:31:23.884Z,12.30
2022-10-18T01:33:57.403Z,12.30
2022-10-18T01:36:32.348Z,12.30
2022-10-18T01:39:03.210Z,12.30
2022-10-18T01:41:35.332Z,12.30
2022-10-18T01:44:04.980Z,12.30
2022-10-18T01:46:33.494Z,12.30
2022-10-18T01:49:00.962Z,12.30
2022-10-18T01:51:32.991Z,12.40
2022-10-18T01:54:00.680Z,12.30
2022-10-18T01:56:30.775Z,12.20
2022-10-18T01:59:18.207Z,12.20
2022-10-18T02:02:12.727Z,12.10
2022-10-18T02:05:01.721Z,12.00
2022-10-18T02:07:40.989Z,11.90
2022-10-18T02:10:30.110Z,11.80
2022-10-18T02:12:58.928Z,11.80
2022-10-18T02:15:37.907Z,11.70
2022-10-18T02:18:23.325Z,11.70
2022-10-18T02:20:52.257Z,11.70
2022-10-18T02:23:23.592Z,11.70
2022-10-18T02:25:51.283Z,11.60
2022-10-18T02:28:18.632Z,11.60
2022-10-18T02:31:00.872Z,11.80
2022-10-18T02:34:00.608Z,11.60
2022-10-18T02:36:31.697Z,11.60
2022-10-18T02:39:06.533Z,11.60
2022-10-18T02:41:34.299Z,11.60
2022-10-18T02:44:01.690Z,11.50
2022-10-18T02:46:28.997Z,11.50
2022-10-18T02:48:56.092Z,11.60
2022-10-18T02:51:23.816Z,11.60
2022-10-18T02:53:50.980Z,11.40
2022-10-18T02:56:18.475Z,11.40
2022-10-18T02:58:45.894Z,11.50
2022-10-18T03:01:13.171Z,11.40
2022-10-18T03:03:40.327Z,11.40
2022-10-18T03:06:07.502Z,11.50
2022-10-18T03:08:36.296Z,11.40
2022-10-18T03:11:05.000Z,11.40
2022-10-18T03:13:34.381Z,11.40
2022-10-18T03:16:01.819Z,11.40
2022-10-18T03:18:29.333Z,11.40
2022-10-18T03:20:56.836Z,11.40
2022-10-18T03:23:24.591Z,11.40
2022-10-18T03:25:51.983Z,11.30
2022-10-18T03:28:19.697Z,11.30
2022-10-18T03:30:47.107Z,11.50
2022-10-18T03:33:14.569Z,11.30
2022-10-18T03:35:41.757Z,11.30
2022-10-18T03:38:09.273Z,11.30
2022-10-18T03:40:36.688Z,11.30
2022-10-18T03:43:04.203Z,11.20
2022-10-18T03:45:31.693Z,11.20
2022-10-18T03:47:59.085Z,11.20
2022-10-18T03:50:26.693Z,11.10
2022-10-18T03:52:55.573Z,11.20
2022-10-18T03:55:23.265Z,11.20
2022-10-18T03:57:50.447Z,11.30
2022-10-18T04:00:17.919Z,11.20
2022-10-18T04:02:45.136Z,11.20
2022-10-18T04:05:12.996Z,11.20
2022-10-18T04:07:40.629Z,11.10
2022-10-18T04:10:08.531Z,11.10
2022-10-18T04:12:41.741Z,11.10
2022-10-18T04:15:09.791Z,11.10
2022-10-18T04:17:36.953Z,11.10
2022-10-18T04:20:04.357Z,11.10
2022-10-18T04:22:31.470Z,11.20
2022-10-18T04:24:58.980Z,11.30
2022-10-18T04:27:26.242Z,11.10
2022-10-18T04:29:53.274Z,11.10
2022-10-18T04:32:21.829Z,11.10
2022-10-18T04:34:49.201Z,11.10
2022-10-18T04:37:17.480Z,11.10
2022-10-18T04:39:51.221Z,11.00
2022-10-18T04:42:21.723Z,11.00
2022-10-18T04:44:49.121Z,10.90
2022-10-18T04:47:17.027Z,10.80
2022-10-18T04:49:44.588Z,10.90
2022-10-18T04:52:11.866Z,10.80
2022-10-18T04:54:39.263Z,10.80
2022-10-18T04:57:06.795Z,10.70
2022-10-18T04:59:34.262Z,10.60
2022-10-18T05:02:01.416Z,10.60
2022-10-18T05:04:28.822Z,10.50
2022-10-18T05:06:56.053Z,10.40
2022-10-18T05:09:25.024Z,10.40
2022-10-18T05:11:52.582Z,10.40
2022-10-18T05:14:19.908Z,10.40
2022-10-18T05:16:47.336Z,10.40
2022-10-18T05:19:15.366Z,10.40
2022-10-18T05:21:42.528Z,10.30
2022-10-18T05:24:12.347Z,10.30
2022-10-18T05:26:39.579Z,10.30
2022-10-18T05:29:07.362Z,10.30
2022-10-18T05:31:34.680Z,10.30
2022-10-18T05:34:02.158Z,10.20
2022-10-18T05:36:29.425Z,10.20
2022-10-18T05:39:00.885Z,10.20
2022-10-18T05:41:31.786Z,10.20
2022-10-18T05:44:02.786Z,10.10
2022-10-18T05:46:30.100Z,10.00
2022-10-18T05:48:57.157Z,10.00
2022-10-18T05:51:24.333Z,10.10
2022-10-18T05:53:51.740Z,10.00
2022-10-18T05:56:19.111Z,10.00
2022-10-18T05:58:51.572Z,10.00
2022-10-18T06:01:19.265Z,10.00
2022-10-18T06:03:46.775Z,9.90
2022-10-18T06:06:15.378Z,9.90
2022-10-18T06:08:43.899Z,9.90
2022-10-18T06:11:19.326Z,9.90
2022-10-18T06:13:48.594Z,9.90
2022-10-18T06:16:18.005Z,9.90
2022-10-18T06:18:52.887Z,9.80
2022-10-18T06:21:20.802Z,9.80
2022-10-18T06:23:57.140Z,9.70
2022-10-18T06:26:25.210Z,9.80
2022-10-18T06:28:52.659Z,9.80
2022-10-18T06:31:21.467Z,9.70
2022-10-18T06:33:49.403Z,9.70
2022-10-18T06:36:19.116Z,9.70
2022-10-18T06:38:46.370Z,9.70
2022-10-18T06:41:13.796Z,9.70
2022-10-18T06:43:40.964Z,9.70
2022-10-18T06:46:09.327Z,9.70
2022-10-18T06:48:38.607Z,9.70
2022-10-18T06:51:07.606Z,9.60
2022-10-18T06:53:44.131Z,9.70
2022-10-18T06:56:16.029Z,9.70
2022-10-18T06:58:43.192Z,9.70
2022-10-18T07:01:13.312Z,9.80
2022-10-18T07:03:40.557Z,9.80
2022-10-18T07:06:10.537Z,9.30
2022-10-18T07:08:38.787Z,9.90
2022-10-18T07:11:07.323Z,10.00
2022-10-18T07:13:34.953Z,10.00
2022-10-18T07:16:11.686Z,10.10
2022-10-18T07:18:43.616Z,10.20
2022-10-18T07:21:14.080Z,10.40
2022-10-18T07:23:44.059Z,10.30
2022-10-18T07:26:14.279Z,10.40
2022-10-18T07:28:42.341Z,10.50
2022-10-18T07:31:11.321Z,10.60
2022-10-18T07:33:38.725Z,10.60
2022-10-18T07:36:07.981Z,10.70
2022-10-18T07:38:36.708Z,10.70
2022-10-18T07:41:07.066Z,10.80
2022-10-18T07:43:35.629Z,10.80
2022-10-18T07:46:05.340Z,10.90
2022-10-18T07:48:33.108Z,10.90
2022-10-18T07:51:01.607Z,11.00
2022-10-18T07:53:29.801Z,11.10
2022-10-18T07:56:03.413Z,11.20
2022-10-18T07:58:33.885Z,11.40
2022-10-18T08:01:05.821Z,11.40
2022-10-18T08:03:33.529Z,11.50
2022-10-18T08:06:01.142Z,11.60
2022-10-18T08:08:28.691Z,11.70
2022-10-18T08:10:56.353Z,12.30
2022-10-18T08:13:23.490Z,11.90
2022-10-18T08:15:50.609Z,12.00
2022-10-18T08:18:17.965Z,12.20
2022-10-18T08:20:45.797Z,12.20
2022-10-18T08:23:13.442Z,12.30
2022-10-18T08:25:40.727Z,12.40
2022-10-18T08:28:08.122Z,12.50
2022-10-18T08:30:36.539Z,12.60
2022-10-18T08:33:04.002Z,12.70
2022-10-18T08:35:31.958Z,12.80
2022-10-18T08:37:59.861Z,12.90
2022-10-18T08:40:28.040Z,13.00
2022-10-18T08:43:21.434Z,13.10
2022-10-18T08:45:51.017Z,13.20
2022-10-18T08:48:23.925Z,13.20
2022-10-18T08:50:54.351Z,13.40
2022-10-18T08:54:02.689Z,13.50
2022-10-18T08:56:30.602Z,13.70
2022-10-18T08:58:59.811Z,13.70
2022-10-18T09:01:57.113Z,13.90
2022-10-18T09:04:35.559Z,14.00
2022-10-18T09:07:24.032Z,14.10
2022-10-18T09:10:20.836Z,14.20
2022-10-18T09:12:48.697Z,14.20
2022-10-18T09:15:56.358Z,14.30
2022-10-18T09:18:59.803Z,14.50
2022-10-18T09:21:34.824Z,14.50
2022-10-18T09:24:40.882Z,14.50
2022-10-18T09:27:18.829Z,14.60
2022-10-18T09:30:00.415Z,14.70
2022-10-18T09:32:58.354Z,14.70
2022-10-18T09:35:32.009Z,14.80
2022-10-18T09:38:06.062Z,14.90
2022-10-18T09:40:48.001Z,14.90
2022-10-18T09:43:45.373Z,15.00
2022-10-18T09:46:14.450Z,15.10
2022-10-18T09:48:56.842Z,15.10
2022-10-18T09:51:37.886Z,15.20
2022-10-18T09:54:44.615Z,15.20
2022-10-18T09:57:21.096Z,15.30
2022-10-18T09:59:52.204Z,15.40
2022-10-18T10:02:24.293Z,15.50
2022-10-18T10:04:53.473Z,15.50
2022-10-18T10:07:29.816Z,15.50
2022-10-18T10:10:12.606Z,15.60
2022-10-18T10:12:41.159Z,15.50
2022-10-18T10:15:31.296Z,15.40
2022-10-18T10:18:08.765Z,15.40
2022-10-18T10:21:13.662Z,15.40
2022-10-18T10:23:58.492Z,15.30
2022-10-18T10:26:29.132Z,15.20
2022-10-18T10:28:56.753Z,15.10
2022-10-18T10:31:31.722Z,15.10
2022-10-18T10:34:13.425Z,15.20
2022-10-18T10:36:49.269Z,15.40
2022-10-18T10:39:23.822Z,15.60
2022-10-18T10:41:53.985Z,15.80
2022-10-18T10:44:24.699Z,15.50
2022-10-18T10:46:53.785Z,15.50
2022-10-18T10:49:41.562Z,15.40
2022-10-18T10:52:28.945Z,15.50
2022-10-18T10:55:23.519Z,15.60
2022-10-18T10:57:52.632Z,15.50
2022-10-18T11:00:36.911Z,15.50
2022-10-18T11:03:28.679Z,15.40
2022-10-18T11:06:02.297Z,15.30
2022-10-18T11:08:40.676Z,15.30
2022-10-18T11:11:23.129Z,15.30
2022-10-18T11:14:07.216Z,15.40
2022-10-18T11:17:23.255Z,15.30
2022-10-18T11:20:21.353Z,15.10
2022-10-18T11:23:06.834Z,15.20
2022-10-18T11:26:01.974Z,15.50
2022-10-18T11:28:53.638Z,15.40
2022-10-18T11:31:57.456Z,15.60
2022-10-18T11:34:48.344Z,15.80
2022-10-18T11:37:39.630Z,15.80
2022-10-18T11:40:43.514Z,16.00
2022-10-18T11:43:19.965Z,16.30
2022-10-18T11:46:20.725Z,16.30
2022-10-18T11:49:13.264Z,16.40
2022-10-18T11:52:14.619Z,16.40
2022-10-18T11:54:57.970Z,16.70
2022-10-18T11:57:52.257Z,16.80
2022-10-18T12:00:41.757Z,16.90
2022-10-18T12:03:42.409Z,16.50
2022-10-18T12:06:19.152Z,16.60
2022-10-18T12:09:24.169Z,16.80
2022-10-18T12:12:00.298Z,17.00
2022-10-18T12:14:36.671Z,17.00
2022-10-18T12:17:40.180Z,17.30
2022-10-18T12:20:05.232Z,17.20
2022-10-18T12:22:43.201Z,17.30
2022-10-18T12:25:18.816Z,17.00
2022-10-18T12:30:52.684Z,16.50
2022-10-18T12:33:31.357Z,16.60
2022-10-18T12:36:21.089Z,16.90
2022-10-18T12:38:57.940Z,17.20
2022-10-18T12:41:31.619Z,17.50
2022-10-18T12:44:17.082Z,17.70
2022-10-18T12:46:54.290Z,18.10
2022-10-18T12:49:34.821Z,17.80
2022-10-18T12:52:24.620Z,17.80
2022-10-18T12:55:16.987Z,17.80
2022-10-18T12:57:54.417Z,17.70
2022-10-18T13:00:31.212Z,17.90
2022-10-18T13:03:19.832Z,18.10
2022-10-18T13:06:17.336Z,18.40
2022-10-18T13:08:48.361Z,18.70
2022-10-18T13:11:30.103Z,18.60
2022-10-18T13:15:00.564Z,18.80
2022-10-18T13:17:50.367Z,19.10
2022-10-18T13:20:42.514Z,18.60
2022-10-18T13:23:46.053Z,18.30
2022-10-18T13:26:16.079Z,18.20
2022-10-18T13:29:13.598Z,18.60
2022-10-18T13:31:51.680Z,18.50
2022-10-18T13:34:23.150Z,18.40
2022-10-18T13:37:20.208Z,18.30
2022-10-18T13:39:48.162Z,18.00
2022-10-18T13:42:15.301Z,17.70
2022-10-18T13:44:46.859Z,17.50
2022-10-18T13:47:35.647Z,17.20
2022-10-18T13:50:18.057Z,17.20
2022-10-18T13:52:57.366Z,17.00
2022-10-18T13:56:13.068Z,16.80
2022-10-18T13:59:16.400Z,16.50
2022-10-18T14:02:30.646Z,16.40
2022-10-18T14:05:31.379Z,16.30
2022-10-18T14:08:10.358Z,16.10
2022-10-18T14:11:01.462Z,16.00
2022-10-18T14:13:51.708Z,16.00
2022-10-18T14:16:30.990Z,16.00
2022-10-18T14:19:24.059Z,16.00
2022-10-18T14:22:07.834Z,16.00
2022-10-18T14:24:35.252Z,16.00
2022-10-18T14:27:29.319Z,16.00
2022-10-18T14:30:20.627Z,15.80
2022-10-18T14:32:52.701Z,15.70
2022-10-18T14:36:00.564Z,15.60
2022-10-18T14:38:34.633Z,15.60
2022-10-18T14:41:18.126Z,15.60
2022-10-18T14:43:49.290Z,15.60
2022-10-18T14:46:29.147Z,15.50
2022-10-18T14:49:04.691Z,15.50
2022-10-18T14:51:35.877Z,15.40
2022-10-18T14:54:08.180Z,15.40
2022-10-18T14:56:40.328Z,15.80
2022-10-18T14:59:17.371Z,15.30
2022-10-18T15:02:19.942Z,15.40
2022-10-18T15:05:17.537Z,15.20
2022-10-18T15:07:45.899Z,15.20
2022-10-18T15:10:23.618Z,15.10
2022-10-18T15:13:16.553Z,15.20
2022-10-18T15:15:47.808Z,15.00
2022-10-18T15:18:26.527Z,15.10
2022-10-18T15:21:22.850Z,15.00
2022-10-18T15:23:54.469Z,15.00
2022-10-18T15:26:31.734Z,14.90
2022-10-18T15:29:02.846Z,15.00
2022-10-18T15:31:41.703Z,15.00
2022-10-18T15:34:26.477Z,15.00
2022-10-18T15:36:56.008Z,14.90
2022-10-18T15:39:27.037Z,14.90
2022-10-18T15:42:01.317Z,14.80
2022-10-18T15:44:46.075Z,14.80
2022-10-18T15:47:14.088Z,14.80
2022-10-18T15:49:58.377Z,14.70
2022-10-18T15:52:33.855Z,14.70
2022-10-18T15:55:45.644Z,14.70
2022-10-18T15:58:20.905Z,14.70
2022-10-18T16:00:50.202Z,14.60
2022-10-18T16:03:19.578Z,14.60
2022-10-18T16:05:47.101Z,14.60
2022-10-18T16:08:22.288Z,14.60
2022-10-18T16:10:50.613Z,14.50
2022-10-18T16:13:18.718Z,14.60
2022-10-18T16:15:46.542Z,14.50
2022-10-18T16:18:17.063Z,14.50
2022-10-18T16:20:47.686Z,14.40
2022-10-18T16:23:26.321Z,14.40
2022-10-18T16:25:54.176Z,14.30
2022-10-18T16:28:24.478Z,14.30
2022-10-18T16:31:00.697Z,14.30
2022-10-18T16:33:39.037Z,14.20
2022-10-18T16:36:21.261Z,14.20
2022-10-18T16:38:49.956Z,14.20
2022-10-18T16:41:18.040Z,14.10
2022-10-18T16:43:47.600Z,14.10
2022-10-18T16:46:21.974Z,14.10
2022-10-18T16:48:50.956Z,14.10
2022-10-18T16:51:28.345Z,14.00
2022-10-18T16:53:58.839Z,14.00
2022-10-18T16:56:39.755Z,14.00
2022-10-18T16:59:18.496Z,14.00
2022-10-18T17:01:48.637Z,14.00
2022-10-18T17:04:26.798Z,14.00
2022-10-18T17:07:07.812Z,14.00
2022-10-18T17:09:36.974Z,14.00
2022-10-18T17:12:04.937Z,14.00
2022-10-18T17:14:35.986Z,13.90
2022-10-18T17:17:08.504Z,14.00
2022-10-18T17:19:36.950Z,13.90
2022-10-18T17:22:05.108Z,13.90
2022-10-18T17:24:37.962Z,13.90
2022-10-18T17:27:12.263Z,13.90
2022-10-18T17:29:41.156Z,13.80
2022-10-18T17:32:10.942Z,13.90
2022-10-18T17:34:45.819Z,13.90
2022-10-18T17:37:20.758Z,13.90
2022-10-18T17:39:55.877Z,13.90
2022-10-18T17:42:37.285Z,13.80
2022-10-18T17:45:07.448Z,13.80
2022-10-18T17:47:35.133Z,13.80
2022-10-18T17:50:02.820Z,13.80
2022-10-18T17:52:33.043Z,13.80
2022-10-18T17:55:00.471Z,13.80
2022-10-18T17:57:31.132Z,13.80
2022-10-18T18:00:03.431Z,13.80
2022-10-18T18:02:42.817Z,13.80
2022-10-18T18:05:13.250Z,13.80
2022-10-18T18:07:40.796Z,13.80
2022-10-18T18:10:13.898Z,13.80
2022-10-18T18:12:56.454Z,13.80
2022-10-18T18:15:26.553Z,13.80
2022-10-18T18:17:57.933Z,13.70
2022-10-18T18:20:30.867Z,13.70
2022-10-18T18:22:59.836Z,13.70
2022-10-18T18:25:27.317Z,13.70
2022-10-18T18:27:55.184Z,13.70
2022-10-18T18:30:25.100Z,13.70
2022-10-18T18:32:54.701Z,13.70
2022-10-18T18:35:24.579Z,13.60
2022-10-18T18:37:54.263Z,13.60
2022-10-18T18:40:24.111Z,13.60
2022-10-18T18:43:07.087Z,13.60
2022-10-18T18:45:52.483Z,13.60
2022-10-18T18:48:20.951Z,13.50
2022-10-18T18:50:53.625Z,13.50
2022-10-18T18:53:33.418Z,13.50
2022-10-18T18:56:08.653Z,13.50
2022-10-18T18:58:45.099Z,13.50
2022-10-18T19:01:20.086Z,13.50
2022-10-18T19:03:49.733Z,13.50
2022-10-18T19:06:23.494Z,13.50
2022-10-18T19:08:54.121Z,13.50
2022-10-18T19:11:23.195Z,13.50
2022-10-18T19:13:53.648Z,13.50
2022-10-18T19:16:28.938Z,13.50
2022-10-18T19:19:06.490Z,13.50
2022-10-18T19:22:13.553Z,13.50
2022-10-18T19:24:41.033Z,13.60
2022-10-18T19:27:12.824Z,13.50
2022-10-18T19:29:41.742Z,13.50
2022-10-18T19:32:12.293Z,13.50
2022-10-18T19:34:39.753Z,13.50
2022-10-18T19:37:09.882Z,13.40
2022-10-18T19:39:37.116Z,13.30
2022-10-18T19:42:07.505Z,13.40
2022-10-18T19:44:41.896Z,13.40
2022-10-18T19:47:16.380Z,13.30
2022-10-18T19:49:43.960Z,13.30
2022-10-18T19:52:12.735Z,13.30
2022-10-18T19:54:40.430Z,13.20
2022-10-18T19:57:07.759Z,13.20
2022-10-18T19:59:36.148Z,13.10
2022-10-18T20:02:04.933Z,13.10
2022-10-18T20:04:34.841Z,13.00
2022-10-18T20:07:02.856Z,13.00
2022-10-18T20:09:30.321Z,12.90
2022-10-18T20:11:58.847Z,12.80
2022-10-18T20:14:27.721Z,12.80
2022-10-18T20:16:55.437Z,12.70
2022-10-18T20:19:23.325Z,12.70
2022-10-18T20:21:50.706Z,12.70
2022-10-18T20:24:18.064Z,12.60
2022-10-18T20:29:21.155Z,12.40
2022-10-18T20:31:48.669Z,12.60
2022-10-18T20:34:16.082Z,12.40
2022-10-18T20:36:43.891Z,12.30
2022-10-18T20:39:11.721Z,12.30
2022-10-18T20:41:41.426Z,12.30
2022-10-18T20:44:13.516Z,12.20
2022-10-18T20:46:41.154Z,12.20
2022-10-18T20:49:15.567Z,12.20
2022-10-18T20:51:44.787Z,12.20
2022-10-18T20:54:13.119Z,12.10
2022-10-18T20:56:40.482Z,12.10
2022-10-18T20:59:10.098Z,12.00
2022-10-18T21:01:40.112Z,12.00
2022-10-18T21:04:11.880Z,12.00
2022-10-18T21:06:43.982Z,11.90
2022-10-18T21:09:18.800Z,11.90
2022-10-18T21:11:51.468Z,11.80
2022-10-18T21:14:21.816Z,11.80
2022-10-18T21:16:50.591Z,11.80
2022-10-18T21:19:24.482Z,11.80
2022-10-18T21:21:55.016Z,11.80
2022-10-18T21:24:24.363Z,11.70
2022-10-18T21:26:52.069Z,11.70
2022-10-18T21:29:22.849Z,11.70
2022-10-18T21:31:54.233Z,11.60
2022-10-18T21:34:24.467Z,11.60
2022-10-18T21:36:55.461Z,11.60
2022-10-18T21:41:53.190Z,11.50
2022-10-18T21:44:20.467Z,11.50
2022-10-18T21:46:53.140Z,11.40
2022-10-18T21:49:26.092Z,11.40
2022-10-18T21:51:53.439Z,11.30
2022-10-18T21:54:20.589Z,11.30
2022-10-18T21:56:47.793Z,11.10
2022-10-18T21:59:15.073Z,11.20
2022-10-18T22:01:44.623Z,11.30
2022-10-18T22:04:40.793Z,11.20
2022-10-18T22:07:12.862Z,11.20
2022-10-18T22:09:42.830Z,11.20
2022-10-18T22:12:11.570Z,11.20
2022-10-18T22:14:38.782Z,11.20
2022-10-18T22:17:06.267Z,11.20
2022-10-18T22:19:36.759Z,11.20
2022-10-18T22:22:03.914Z,11.20
2022-10-18T22:24:31.154Z,11.20
2022-10-18T22:27:02.191Z,11.20
2022-10-18T22:29:36.384Z,11.20
2022-10-18T22:32:06.161Z,11.20
2022-10-18T22:34:35.154Z,11.30
2022-10-18T22:37:07.539Z,11.30
2022-10-18T22:39:42.229Z,11.30
2022-10-18T22:42:09.528Z,11.30
2022-10-18T22:44:38.994Z,11.40
2022-10-18T22:47:09.402Z,11.40
2022-10-18T22:49:36.718Z,11.40
2022-10-18T22:52:04.262Z,11.40
2022-10-18T22:54:45.064Z,11.40
2022-10-18T22:57:19.622Z,11.40
2022-10-18T22:59:47.491Z,11.40
2022-10-18T23:02:18.528Z,11.50
2022-10-18T23:04:48.997Z,11.40
2022-10-18T23:07:18.454Z,11.40
2022-10-18T23:09:46.683Z,11.40
2022-10-18T23:12:14.394Z,11.30
2022-10-18T23:14:41.902Z,11.40
2022-10-18T23:17:14.034Z,11.40
2022-10-18T23:19:44.229Z,11.30
2022-10-18T23:22:11.404Z,11.40
2022-10-18T23:24:38.552Z,11.40
2022-10-18T23:27:09.601Z,11.40
2022-10-18T23:29:40.080Z,11.40
2022-10-18T23:32:08.216Z,11.40
2022-10-18T23:34:35.487Z,11.40
2022-10-18T23:37:03.884Z,11.40
2022-10-18T23:39:31.110Z,11.40
2022-10-18T23:41:58.244Z,11.50
2022-10-18T23:44:25.709Z,11.50
2022-10-18T23:46:55.915Z,11.50
2022-10-18T23:49:23.036Z,11.60
2022-10-18T23:51:51.656Z,11.60
2022-10-18T23:54:21.446Z,11.60
2022-10-18T23:56:51.862Z,11.70
2022-10-18T23:59:19.118Z,11.70
